sim
Sign-in with your pilot id or email,
or register
Callsign
Passwort

Schedule Details

Flight Number: DLH1715
Departure: Zagreb Franjo Tudman Airport (LDZA) at 16:05
Arrival: Munich Airport (EDDM) at 17:10
Route: Lufthansa Passenger Schedule. Enter filed route here before submitting Pirep.

Weather Information
Getting current METAR information for LDZA 190730Z 04004KT 330V120 CAVOK 14/11 Q1024 NOSIG
Getting current METAR information for EDDM 190750Z 09008KT 050V110 CAVOK 12/07 Q1020 NOSIG

Schedule Frequency

Route Map